sensor_id;sensor_type;location;lat;lon;timestamp;pressure;altitude;pressure_sealevel;temperature;humidity
70458;BME280;57919;56.194;95.716;2023-02-16T00:03:24;100744.56;;;-24.29;60.27
70458;BME280;57919;56.194;95.716;2023-02-16T00:13:27;100753.44;;;-24.01;60.16
70458;BME280;57919;56.194;95.716;2023-02-16T00:23:45;100765.19;;;-23.79;59.65
70458;BME280;57919;56.194;95.716;2023-02-16T00:33:48;100773.63;;;-23.69;59.76
70458;BME280;57919;56.194;95.716;2023-02-16T00:43:54;100790.41;;;-23.61;59.43
70458;BME280;57919;56.194;95.716;2023-02-16T00:53:56;100783.22;;;-24.01;59.07
70458;BME280;57919;56.194;95.716;2023-02-16T01:04:03;100791.00;;;-24.23;60.26
70458;BME280;57919;56.194;95.716;2023-02-16T01:14:10;100801.34;;;-24.10;60.68
70458;BME280;57919;56.194;95.716;2023-02-16T01:24:13;100799.41;;;-23.54;60.92
70458;BME280;57919;56.194;95.716;2023-02-16T01:34:15;100795.00;;;-23.32;60.95
70458;BME280;57919;56.194;95.716;2023-02-16T01:44:27;100803.44;;;-23.69;62.02
70458;BME280;57919;56.194;95.716;2023-02-16T01:54:42;100806.56;;;-23.97;63.88
70458;BME280;57919;56.194;95.716;2023-02-16T02:04:48;100784.78;;;-24.03;64.34
70458;BME280;57919;56.194;95.716;2023-02-16T02:15:16;100799.09;;;-23.70;64.05
70458;BME280;57919;56.194;95.716;2023-02-16T02:35:48;100799.97;;;-22.85;62.19
70458;BME280;57919;56.194;95.716;2023-02-16T02:46:17;100790.06;;;-22.16;62.35
70458;BME280;57919;56.194;95.716;2023-02-16T02:56:21;100790.16;;;-21.48;61.62
70458;BME280;57919;56.194;95.716;2023-02-16T03:06:47;100759.81;;;-21.13;61.22
70458;BME280;57919;56.194;95.716;2023-02-16T03:16:59;100766.34;;;-20.33;60.90
70458;BME280;57919;56.194;95.716;2023-02-16T03:27:24;100751.47;;;-19.78;60.12
70458;BME280;57919;56.194;95.716;2023-02-16T03:37:46;100746.94;;;-19.67;59.88
70458;BME280;57919;56.194;95.716;2023-02-16T03:47:48;100748.16;;;-19.13;58.18
70458;BME280;57919;56.194;95.716;2023-02-16T03:57:50;100744.78;;;-18.46;58.75
70458;BME280;57919;56.194;95.716;2023-02-16T04:07:52;100745.94;;;-17.71;57.70
70458;BME280;57919;56.194;95.716;2023-02-16T04:17:54;100742.81;;;-17.09;57.41
70458;BME280;57919;56.194;95.716;2023-02-16T04:27:56;100745.50;;;-16.69;56.09
70458;BME280;57919;56.194;95.716;2023-02-16T04:37:58;100736.53;;;-16.37;56.38
70458;BME280;57919;56.194;95.716;2023-02-16T04:48:00;100727.53;;;-16.26;55.64
70458;BME280;57919;56.194;95.716;2023-02-16T04:58:02;100714.56;;;-15.63;59.95
70458;BME280;57919;56.194;95.716;2023-02-16T05:08:04;100714.69;;;-15.38;54.69
70458;BME280;57919;56.194;95.716;2023-02-16T05:18:06;100717.69;;;-15.05;54.13
70458;BME280;57919;56.194;95.716;2023-02-16T05:28:09;100706.56;;;-14.79;53.85
70458;BME280;57919;56.194;95.716;2023-02-16T05:38:10;100684.50;;;-14.41;54.06
70458;BME280;57919;56.194;95.716;2023-02-16T05:48:12;100676.31;;;-14.27;53.49
70458;BME280;57919;56.194;95.716;2023-02-16T05:58:14;100676.41;;;-14.24;53.59
70458;BME280;57919;56.194;95.716;2023-02-16T06:08:16;100647.47;;;-14.10;53.23
70458;BME280;57919;56.194;95.716;2023-02-16T06:18:18;100665.22;;;-13.96;53.90
70458;BME280;57919;56.194;95.716;2023-02-16T06:28:20;100645.66;;;-13.85;52.91
70458;BME280;57919;56.194;95.716;2023-02-16T06:38:22;100644.25;;;-14.28;53.10
70458;BME280;57919;56.194;95.716;2023-02-16T06:48:24;100630.78;;;-14.43;52.81
70458;BME280;57919;56.194;95.716;2023-02-16T06:58:26;100623.19;;;-14.35;53.78
70458;BME280;57919;56.194;95.716;2023-02-16T07:08:28;100618.03;;;-14.09;53.75
70458;BME280;57919;56.194;95.716;2023-02-16T07:18:30;100615.13;;;-14.18;54.50
70458;BME280;57919;56.194;95.716;2023-02-16T07:28:33;100605.34;;;-13.99;54.05
70458;BME280;57919;56.194;95.716;2023-02-16T07:38:35;100603.50;;;-13.75;54.51
70458;BME280;57919;56.194;95.716;2023-02-16T07:48:37;100597.84;;;-13.62;54.34
70458;BME280;57919;56.194;95.716;2023-02-16T07:58:40;100596.25;;;-13.57;54.60
70458;BME280;57919;56.194;95.716;2023-02-16T08:08:41;100591.19;;;-13.52;54.79
70458;BME280;57919;56.194;95.716;2023-02-16T08:18:43;100591.94;;;-13.85;55.54
70458;BME280;57919;56.194;95.716;2023-02-16T08:28:47;100593.19;;;-13.72;55.69
70458;BME280;57919;56.194;95.716;2023-02-16T08:38:50;100589.94;;;-13.65;55.29
70458;BME280;57919;56.194;95.716;2023-02-16T08:48:54;100577.16;;;-13.57;55.35
70458;BME280;57919;56.194;95.716;2023-02-16T08:58:59;100593.97;;;-13.46;55.69
70458;BME280;57919;56.194;95.716;2023-02-16T09:09:01;100597.78;;;-13.35;55.44
70458;BME280;57919;56.194;95.716;2023-02-16T09:19:06;100602.19;;;-13.32;56.00
70458;BME280;57919;56.194;95.716;2023-02-16T09:29:09;100595.94;;;-13.39;55.43
70458;BME280;57919;56.194;95.716;2023-02-16T09:39:13;100584.78;;;-13.63;55.55
70458;BME280;57919;56.194;95.716;2023-02-16T09:49:44;100597.38;;;-13.77;56.40
70458;BME280;57919;56.194;95.716;2023-02-16T10:00:10;100580.66;;;-14.12;55.77
70458;BME280;57919;56.194;95.716;2023-02-16T10:10:20;100592.59;;;-14.46;56.00
70458;BME280;57919;56.194;95.716;2023-02-16T10:30:24;100597.09;;;-15.15;56.12
70458;BME280;57919;56.194;95.716;2023-02-16T10:40:39;100571.16;;;-15.62;56.58
70458;BME280;57919;56.194;95.716;2023-02-16T10:50:56;100599.19;;;-15.75;55.95
70458;BME280;57919;56.194;95.716;2023-02-16T11:01:16;100616.50;;;-15.96;56.12
70458;BME280;57919;56.194;95.716;2023-02-16T11:11:19;100620.81;;;-16.17;56.97
70458;BME280;57919;56.194;95.716;2023-02-16T11:21:49;100631.00;;;-16.43;56.01
70458;BME280;57919;56.194;95.716;2023-02-16T11:31:51;100633.22;;;-16.73;57.04
70458;BME280;57919;56.194;95.716;2023-02-16T11:42:49;100645.84;;;-16.99;56.68
70458;BME280;57919;56.194;95.716;2023-02-16T11:52:30;100638.22;;;-17.35;56.90
70458;BME280;57919;56.194;95.716;2023-02-16T12:14:01;100650.81;;;-17.97;57.47
70458;BME280;57919;56.194;95.716;2023-02-16T12:24:05;100659.09;;;-18.22;57.78
70458;BME280;57919;56.194;95.716;2023-02-16T12:44:39;100656.50;;;-17.87;57.82
70458;BME280;57919;56.194;95.716;2023-02-16T12:54:53;100647.94;;;-18.04;57.77
70458;BME280;57919;56.194;95.716;2023-02-16T13:15:25;100670.66;;;-18.32;57.58
70458;BME280;57919;56.194;95.716;2023-02-16T13:47:00;100667.06;;;-18.52;59.50
70458;BME280;57919;56.194;95.716;2023-02-16T13:56:42;100675.53;;;-18.72;58.63
70458;BME280;57919;56.194;95.716;2023-02-16T14:06:44;100643.59;;;-19.08;58.31
70458;BME280;57919;56.194;95.716;2023-02-16T14:16:46;100672.75;;;-19.09;58.42
70458;BME280;57919;56.194;95.716;2023-02-16T14:26:54;100680.00;;;-19.35;58.51
70458;BME280;57919;56.194;95.716;2023-02-16T14:47:37;100678.63;;;-19.60;58.56
70458;BME280;57919;56.194;95.716;2023-02-16T15:08:27;100683.03;;;-19.74;58.66
70458;BME280;57919;56.194;95.716;2023-02-16T15:18:45;100659.88;;;-19.89;58.63
70458;BME280;57919;56.194;95.716;2023-02-16T15:28:53;100682.00;;;-19.92;58.58
70458;BME280;57919;56.194;95.716;2023-02-16T15:38:58;100687.50;;;-19.86;58.70
70458;BME280;57919;56.194;95.716;2023-02-16T15:49:21;100667.91;;;-19.99;58.61
70458;BME280;57919;56.194;95.716;2023-02-16T15:59:39;100673.06;;;-20.14;59.14
70458;BME280;57919;56.194;95.716;2023-02-16T16:09:45;100665.00;;;-20.20;58.91
70458;BME280;57919;56.194;95.716;2023-02-16T16:19:47;100675.44;;;-20.48;59.43
70458;BME280;57919;56.194;95.716;2023-02-16T16:29:49;100663.94;;;-20.54;59.90
70458;BME280;57919;56.194;95.716;2023-02-16T17:00:16;100647.66;;;-21.12;60.79
70458;BME280;57919;56.194;95.716;2023-02-16T17:10:20;100663.66;;;-20.74;61.21
70458;BME280;57919;56.194;95.716;2023-02-16T17:20:22;100630.59;;;-20.22;61.37
70458;BME280;57919;56.194;95.716;2023-02-16T17:30:24;100622.25;;;-20.18;60.94
70458;BME280;57919;56.194;95.716;2023-02-16T17:40:26;100613.91;;;-20.14;61.00
70458;BME280;57919;56.194;95.716;2023-02-16T17:50:28;100619.13;;;-20.12;61.03
70458;BME280;57919;56.194;95.716;2023-02-16T18:00:33;100615.19;;;-20.06;60.86
70458;BME280;57919;56.194;95.716;2023-02-16T18:10:40;100607.44;;;-19.91;61.93
70458;BME280;57919;56.194;95.716;2023-02-16T18:20:42;100611.38;;;-19.49;64.10
70458;BME280;57919;56.194;95.716;2023-02-16T18:30:48;100597.06;;;-19.27;64.95
70458;BME280;57919;56.194;95.716;2023-02-16T18:40:52;100602.16;;;-18.95;64.69
70458;BME280;57919;56.194;95.716;2023-02-16T18:50:54;100595.31;;;-18.60;64.64
70458;BME280;57919;56.194;95.716;2023-02-16T19:00:56;100569.75;;;-18.19;64.94
70458;BME280;57919;56.194;95.716;2023-02-16T19:10:58;100591.16;;;-17.67;64.45
70458;BME280;57919;56.194;95.716;2023-02-16T19:21:06;100582.06;;;-17.57;64.24
70458;BME280;57919;56.194;95.716;2023-02-16T19:31:18;100577.00;;;-17.75;64.66
70458;BME280;57919;56.194;95.716;2023-02-16T19:41:26;100581.94;;;-17.60;64.51
70458;BME280;57919;56.194;95.716;2023-02-16T19:51:28;100574.41;;;-17.55;64.70
70458;BME280;57919;56.194;95.716;2023-02-16T20:01:30;100562.09;;;-17.42;65.83
70458;BME280;57919;56.194;95.716;2023-02-16T20:11:33;100549.41;;;-17.16;65.52
70458;BME280;57919;56.194;95.716;2023-02-16T20:21:35;100553.53;;;-17.01;65.86
70458;BME280;57919;56.194;95.716;2023-02-16T20:31:49;100524.59;;;-16.92;65.91
70458;BME280;57919;56.194;95.716;2023-02-16T20:41:52;100524.09;;;-16.83;67.12
70458;BME280;57919;56.194;95.716;2023-02-16T20:51:54;100532.34;;;-16.71;67.95
70458;BME280;57919;56.194;95.716;2023-02-16T21:01:56;100496.72;;;-16.33;67.08
70458;BME280;57919;56.194;95.716;2023-02-16T21:11:58;100500.50;;;-16.03;66.77
70458;BME280;57919;56.194;95.716;2023-02-16T21:22:00;100492.41;;;-15.88;66.41
70458;BME280;57919;56.194;95.716;2023-02-16T21:32:02;100478.63;;;-15.87;67.32
70458;BME280;57919;56.194;95.716;2023-02-16T21:42:04;100461.38;;;-15.63;67.14
70458;BME280;57919;56.194;95.716;2023-02-16T21:52:06;100438.56;;;-15.48;68.05
70458;BME280;57919;56.194;95.716;2023-02-16T22:02:08;100445.72;;;-15.15;69.59
70458;BME280;57919;56.194;95.716;2023-02-16T22:12:11;100420.81;;;-14.56;68.99
70458;BME280;57919;56.194;95.716;2023-02-16T22:22:13;100406.94;;;-13.35;71.82
70458;BME280;57919;56.194;95.716;2023-02-16T22:32:14;100384.19;;;-12.72;70.50
70458;BME280;57919;56.194;95.716;2023-02-16T22:42:17;100378.28;;;-12.26;69.08
70458;BME280;57919;56.194;95.716;2023-02-16T22:52:18;100371.69;;;-12.09;69.09
70458;BME280;57919;56.194;95.716;2023-02-16T23:02:20;100358.13;;;-11.92;68.51
70458;BME280;57919;56.194;95.716;2023-02-16T23:12:22;100367.97;;;-11.76;68.20
70458;BME280;57919;56.194;95.716;2023-02-16T23:22:24;100365.56;;;-11.65;68.15
70458;BME280;57919;56.194;95.716;2023-02-16T23:32:26;100333.31;;;-11.69;67.31
70458;BME280;57919;56.194;95.716;2023-02-16T23:42:28;100350.16;;;-11.52;67.70
70458;BME280;57919;56.194;95.716;2023-02-16T23:52:30;100330.16;;;-11.53;67.17
